• Join FlightAware (Why Join?)
  • Login
  • US Flag 
07:33AM EDT


 

Airport Tracker/Info


-or-


 

Live Flight TrackerFlight Track Log ✈ AAY834 ✈ 19-Jun-2014 ✈ KPIE - KGSO

Flight Track Log - Related Links

Times and Time Zones

All times are in EDT time to prevent confusion due to time zone crossing. See the AAY834 flight status page for this flight to view local times or setup timezone preferences in your user account.

Time Position Orientation Groundspeed Altitude Reporting Facility
EDT Latitude Longitude Course Direction KTS MPH feet Rate Location/Type
11:21AM 27.9500 -82.6833 North 161 185 1,700  Level Tampa TRACON
11:22AM 28.0000 -82.6667 16° North 243 280 3,400 1,320 Climbing Tampa TRACON
11:23AM 28.7349 -82.6333 North  Level FlightAware Approximate
11:23AM 28.0667 -82.6667 360° North 288 331 4,100  Level Tampa TRACON
11:24AM 28.8397 -82.6333 360° North  Level FlightAware Approximate
11:24AM 28.1333 -82.6833 348° North 280 322 6,400  Level Tampa TRACON
11:25AM 28.9443 -82.6283 North  Level FlightAware Approximate
11:25AM 28.2167 -82.7000 350° North 295 339 9,300  Level Tampa TRACON
11:26AM 29.0487 -82.6196 North  Level FlightAware Approximate
11:26AM 28.3000 -82.7000 360° North 330 380 11,000  Level Tampa TRACON
11:27AM 28.3878 -82.6967 North 338 389 12,900 2,280 Climbing Jacksonville Center
11:28AM 28.4900 -82.6967 360° North 349 402 15,500 2,220 Climbing Jacksonville Center
11:29AM 28.5964 -82.6964 360° North 359 413 17,400 1,860 Climbing Jacksonville Center
11:30AM 28.7028 -82.6914 North 373 429 19,300 1,860 Climbing Jacksonville Center
11:31AM 28.8156 -82.6911 360° North 385 443 21,200 1,740 Climbing Jacksonville Center
11:32AM 28.9239 -82.6908 360° North 390 449 22,800 1,500 Climbing Jacksonville Center
11:33AM 29.0408 -82.6931 359° North 401 461 24,300 1,380 Climbing Jacksonville Center
11:34AM 29.1578 -82.6906 North 406 467 25,600 1,320 Climbing Jacksonville Center
11:35AM 29.2789 -82.6903 360° North 419 482 27,000 1,320 Climbing Jacksonville Center
11:36AM 29.4000 -82.6900 360° North 425 489 28,300 1,200 Climbing Jacksonville Center
11:37AM 29.5378 -82.6919 359° North 441 507 29,500 1,260 Climbing Jacksonville Center
11:42AM 30.2174 -82.6877 North 422 486 36,600 1,080 Climbing FlightAware ADS-B (KMCO)
11:44AM 30.3745 -82.6870 North 421 484 37,000 120 Climbing FlightAware ADS-B (KMCO)
11:45AM 30.4856 -82.6806 North 418 481 36,900 -60 Descending Jacksonville Center
11:46AM 30.5983 -82.6489 14° North 418 481 36,900  Level Jacksonville Center
11:47AM 30.7089 -82.5953 23° Northeast 411 473 36,900  Level Jacksonville Center
11:48AM 30.8153 -82.5467 21° North 417 480 36,900  Level Jacksonville Center
11:49AM 30.9214 -82.4931 23° Northeast 417 480 36,900  Level Jacksonville Center
11:50AM 31.0342 -82.4417 21° North 417 480 36,900  Level Jacksonville Center
11:51AM 31.1425 -82.3900 22° Northeast 417 480 36,900  Level Jacksonville Center
11:52AM 31.2508 -82.3408 21° North 417 480 36,900  Level Jacksonville Center
11:53AM 31.3614 -82.2892 22° Northeast 417 480 36,900  Level Jacksonville Center
11:54AM 31.4717 -82.2325 24° Northeast 417 480 36,900  Level Jacksonville Center
11:55AM 31.5800 -82.1828 21° North 417 480 36,900  Level Jacksonville Center
11:56AM 31.6903 -82.1258 24° Northeast 417 480 37,000  Climbing Jacksonville Center
11:57AM 31.8111 -82.0686 22° Northeast 422 486 37,000 -60 Level Jacksonville Center
11:58AM 31.9192 -82.0164 22° Northeast 422 486 36,900  Descending Jacksonville Center
11:59AM 32.0211 -81.9689 22° Northeast 422 486 37,000  Climbing Jacksonville Center
12:00PM 32.1419 -81.9111 22° Northeast 427 491 37,000  Level Jacksonville Center
12:01PM 32.2519 -81.8558 23° Northeast 433 498 37,000  Level Jacksonville Center
12:02PM 32.3664 -81.8006 22° Northeast 433 498 37,000 -60 Level Jacksonville Center
12:03PM 32.4767 -81.7475 22° Northeast 433 498 36,900  Descending Jacksonville Center
12:04PM 32.5764 -81.6944 24° Northeast 433 498 37,000  Climbing Jacksonville Center
12:05PM 32.6842 -81.6214 30° Northeast 428 493 37,000  Level Jacksonville Center
12:11PM 33.3080 -81.1625 32° Northeast 439 505 37,000  Level FlightAware ADS-B (KCDN)
12:11PM 33.3808 -81.1091 32° Northeast 439 505 37,000 -420 Level FlightAware ADS-B (KCDN)
12:12PM 33.4635 -81.0484 32° Northeast 439 505 36,400 -900 Descending FlightAware ADS-B (KCDN)
12:13PM 33.5391 -80.9930 32° Northeast 442 509 35,700 -960 Descending FlightAware ADS-B (KCDN)
12:13PM 33.5954 -80.9513 32° Northeast 446 513 35,200 -1,140 Descending FlightAware ADS-B (KCDN)
12:14PM 33.6748 -80.8931 32° Northeast 449 517 34,300 -1,440 Descending FlightAware ADS-B (KCDN)
12:15PM 33.7537 -80.8348 32° Northeast 457 526 33,100 -1,380 Descending FlightAware ADS-B (KCDN)
12:16PM 33.8343 -80.7753 32° Northeast 453 521 32,300 -1,020 Descending FlightAware ADS-B (KCDN)
12:16PM 33.8913 -80.7327 32° Northeast 440 506 31,800 -960 Descending FlightAware ADS-B (KCDN)
12:17PM 33.9686 -80.6754 32° Northeast 433 498 31,100 -960 Descending FlightAware ADS-B (KCDN)
12:17PM 34.0193 -80.6378 32° Northeast 427 491 30,600 -1,560 Descending FlightAware ADS-B (KCDN)
12:18PM 34.1192 -80.5631 32° Northeast 431 496 28,800 -1,860 Descending FlightAware ADS-B (KCDN)
12:19PM 34.2136 -80.4926 32° Northeast 421 484 27,100 -2,100 Descending FlightAware ADS-B (KCDN)
12:20PM 34.2855 -80.4388 32° Northeast 408 470 25,300 -1,560 Descending FlightAware ADS-B (KCDN)
12:21PM 34.4149 -80.3417 32° Northeast 401 461 23,800 -780 Descending FlightAware ADS-B (KCDN)
12:22PM 34.4913 -80.2842 32° Northeast 390 449 23,600 -240 Descending FlightAware ADS-B (KCDN)
12:23PM 34.5924 -80.2076 32° Northeast 387 445 23,400 -180 Descending FlightAware ADS-B (KCDN)
12:24PM 34.5856 -80.2128 32° Northeast 388 447 23,300 -240 Descending FlightAware ADS-B (KINT)
12:27PM 34.9578 -79.9603 26° Northeast 382 440 22,500 -420 Descending FlightAware ADS-B (KINT)
12:28PM 35.0181 -79.9246 26° Northeast 380 437 21,800 -1,380 Descending FlightAware ADS-B (KINT)
12:29PM 35.0849 -79.8854 26° Northeast 378 435 20,700 -1,680 Descending FlightAware ADS-B (KINT)
12:29PM 35.1468 -79.8489 26° Northeast 374 430 19,600 -1,980 Descending FlightAware ADS-B (KINT)
12:30PM 35.2089 -79.8121 26° Northeast 375 432 18,100 -1,980 Descending FlightAware ADS-B (KINT)
12:31PM 35.2686 -79.7769 26° Northeast 371 427 17,000 -1,740 Descending FlightAware ADS-B (KINT)
12:31PM 35.3337 -79.7383 26° Northeast 366 421 15,800 -1,740 Descending FlightAware ADS-B (KINT)
12:32PM 35.3937 -79.7025 26° Northeast 360 414 14,700 -1,740 Descending FlightAware ADS-B (KINT)
12:33PM 35.4527 -79.6671 26° Northeast 354 407 13,500 -1,740 Descending FlightAware ADS-B (KINT)
12:33PM 35.5076 -79.6345 26° Northeast 348 400 12,400 -1,620 Descending FlightAware ADS-B (KINT)
12:33PM 35.5299 -79.6226 14° North 343 395 12,100 -1,140 Descending FlightAware ADS-B (KINT)
12:34PM 35.5951 -79.6440 329° Northwest 319 367 11,300 -900 Descending FlightAware ADS-B (KINT)
12:35PM 35.6482 -79.6828 329° Northwest 315 362 10,800 -780 Descending FlightAware ADS-B (KINT)
12:36PM 35.6949 -79.7160 329° Northwest 292 336 10,300 -1,080 Descending FlightAware ADS-B (KINT)
12:36PM 35.7190 -79.7280 348° North 289 333 9,800 -1,680 Descending FlightAware ADS-B (KINT)
12:36PM 35.7591 -79.7200 16° North 297 342 8,800 -1,020 Descending FlightAware ADS-B (KINT)
12:37PM 35.7931 -79.7084 16° North 295 339 8,800  Level FlightAware ADS-B (KINT)
12:37PM 35.8103 -79.7025 16° North 294 338 8,800  Level FlightAware ADS-B (KINT)
12:38PM 35.8345 -79.6941 16° North 293 337 8,800  Level FlightAware ADS-B (KINT)
12:38PM 35.8770 -79.6792 16° North 294 338 8,800  Level FlightAware ADS-B (KINT)
12:38PM 35.8964 -79.6724 16° North 294 338 8,800 -360 Level FlightAware ADS-B (KINT)
12:38PM 35.9253 -79.6623 16° North 294 338 8,600 -1,020 Descending FlightAware ADS-B (KINT)
12:39PM 35.9540 -79.6525 15° North 291 335 8,100 -1,320 Descending FlightAware ADS-B (KINT)
12:40PM 36.0266 -79.6757 304° West 274 315 6,800 -900 Descending FlightAware ADS-B (KINT)
12:41PM 36.0645 -79.7145 331° Northwest 278 320 6,600 -540 Descending FlightAware ADS-B (KINT)
12:41PM 36.0737 -79.7154 North 278 320 6,400 -1,440 Descending FlightAware ADS-B (KINT)
12:41PM 36.1138 -79.7121 North 277 319 5,700 -1,380 Descending FlightAware ADS-B (KINT)
12:41PM 36.1226 -79.7112 North 266 306 5,300 -1,020 Descending FlightAware ADS-B (KINT)
12:42PM 36.1726 -79.6983 24° Northeast 244 281 4,900 -600 Descending FlightAware ADS-B (KINT)
12:43PM 36.2234 -79.6727 320° Northwest 178 205 4,500 -420 Descending FlightAware ADS-B (KINT)
12:45PM 36.2315 -79.7645 228° Southwest 181 208 3,800 -420 Descending FlightAware ADS-B (KINT)
12:45PM 36.2222 -79.7768 227° Southwest 181 208 3,600 -780 Descending FlightAware ADS-B (KINT)
12:48PM 36.1013 -79.9411 228° Southwest  Level Estimated
12:49PM 36.1000 -79.9333 22° Northeast  Level FlightAware Approximate
12:50PM 36.1013 -79.9411 22° Northeast  Level Estimated
12:51PM 36.1000 -79.9333 22° Northeast  Level FlightAware Approximate
12:52PM 36.1013 -79.9411 22° Northeast  Level Estimated
12:53PM 36.1000 -79.9333 22° Northeast  Level FlightAware Approximate
12:54PM 36.1013 -79.9411 22° Northeast  Level Estimated
12:55PM 36.1000 -79.9333 22° Northeast  Level FlightAware Approximate
12:56PM 36.1013 -79.9411 22° Northeast  Level Estimated
12:57PM 36.1000 -79.9333 22° Northeast  Level FlightAware Approximate
12:58PM 36.1013 -79.9411 22° Northeast  Level Estimated